Time;durP1;ratioP1;P1;durP2;ratioP2;P2;SDS_P1;SDS_P2;PMS_P1;PMS_P2;Temp;Humidity;BMP_temperature;BMP_pressure;BME280_temperature;BME280_humidity;BME280_pressure;Samples;Min_cycle;Max_cycle;Signal;HPM_P1;HPM_P2
2023/09/15 00:01:09;;;;;;;;;;;;;;;11.33;78.97;102119.05;105914;1268;71652;-83
2023/09/15 00:03:36;;;;;;;;;;;;;;;11.29;78.98;102122.39;105957;1273;62129;-82
2023/09/15 00:06:04;;;;;;;;;;;;;;;11.25;79.11;102117.47;105926;1273;125628;-89
2023/09/15 00:08:30;;;;;;;;;;;;;;;11.23;79.20;102121.44;105894;1271;73918;-89
2023/09/15 00:10:57;;;;;;;;;;;;;;;11.21;79.22;102119.80;105682;1275;126195;-89
2023/09/15 00:13:23;;;;;;;;;;;;;;;11.19;79.27;102117.93;105837;1273;62124;-88
2023/09/15 00:15:51;;;;;;;;;;;;;;;11.17;79.34;102118.38;105936;1268;62081;-88
2023/09/15 00:18:21;;;;;;;;;;;;;;;11.16;79.39;102120.78;106179;1268;125479;-88
2023/09/15 00:20:47;;;;;;;;;;;;;;;11.14;79.40;102122.29;105776;1268;74651;-89
2023/09/15 00:23:14;;;;;;;;;;;;;;;11.13;79.39;102124.14;105840;1270;125287;-83
2023/09/15 00:25:40;;;;;;;;;;;;;;;11.10;79.32;102127.17;105819;1267;62116;-82
2023/09/15 00:28:09;;;;;;;;;;;;;;;11.08;79.48;102129.91;105853;1270;62139;-82
2023/09/15 00:30:37;;;;;;;;;;;;;;;11.07;79.66;102127.96;105669;1270;125804;-81
2023/09/15 00:33:04;;;;;;;;;;;;;;;11.07;79.63;102126.56;105845;1267;75248;-88
2023/09/15 00:35:31;;;;;;;;;;;;;;;11.07;79.49;102129.35;105833;1268;125408;-88
2023/09/15 00:37:58;;;;;;;;;;;;;;;11.05;79.59;102132.42;105947;1268;72822;-88
2023/09/15 00:40:24;;;;;;;;;;;;;;;11.04;79.56;102129.05;105760;1269;125518;-88
2023/09/15 00:42:51;;;;;;;;;;;;;;;11.03;79.70;102131.98;105949;1269;62102;-87
2023/09/15 00:45:19;;;;;;;;;;;;;;;11.01;79.74;102131.71;105673;1270;73804;-87
2023/09/15 00:47:52;;;;;;;;;;;;;;;11.01;79.71;102133.26;105698;1267;125240;-82
2023/09/15 00:50:29;;;;;;;;;;;;;;;11.00;79.79;102136.36;105728;1267;72732;-81
2023/09/15 00:52:57;;;;;;;;;;;;;;;10.98;79.74;102137.89;105745;1268;125445;-82
2023/09/15 00:55:24;;;;;;;;;;;;;;;10.97;79.77;102138.20;105868;1270;62097;-82
2023/09/15 00:57:51;;;;;;;;;;;;;;;10.95;79.77;102138.30;105775;1273;74158;-81
2023/09/15 01:00:19;;;;;;;;;;;;;;;10.92;79.64;102137.42;105581;1274;125543;-82
2023/09/15 01:02:46;;;;;;;;;;;;;;;10.88;79.59;102140.27;105789;1267;72714;-81
2023/09/15 01:05:20;;;;;;;;;;;;;;;10.86;79.69;102138.73;105781;1267;125948;-82
2023/09/15 01:07:47;;;;;;;;;;;;;;;10.83;79.68;102145.10;105741;1270;62267;-83
2023/09/15 01:10:14;;;;;;;;;;;;;;;10.82;79.79;102149.27;105793;1268;75488;-82
2023/09/15 01:12:41;;;;;;;;;;;;;;;10.81;79.90;102152.42;105902;1268;65799;-83
2023/09/15 01:15:08;;;;;;;;;;;;;;;10.81;79.86;102151.54;105774;1268;72742;-83
2023/09/15 01:17:53;;;;;;;;;;;;;;;10.80;80.09;102155.16;105702;1275;125759;-83
2023/09/15 01:20:26;;;;;;;;;;;;;;;10.80;79.84;102155.14;105757;1268;62071;-83
2023/09/15 01:23:08;;;;;;;;;;;;;;;10.77;79.99;102156.09;105710;1268;125558;-85
2023/09/15 01:25:47;;;;;;;;;;;;;;;10.77;80.04;102161.52;105928;1267;65006;-83
2023/09/15 01:28:19;;;;;;;;;;;;;;;10.76;79.97;102167.05;105828;1268;72630;-85
2023/09/15 01:30:49;;;;;;;;;;;;;;;10.74;79.99;102170.30;105975;1268;60423;-82
2023/09/15 01:33:16;;;;;;;;;;;;;;;10.72;80.00;102172.16;106030;1267;62187;-82
2023/09/15 01:35:43;;;;;;;;;;;;;;;10.67;80.03;102167.37;105598;1268;125438;-82
2023/09/15 01:38:09;;;;;;;;;;;;;;;10.68;80.10;102171.46;105824;1268;60814;-82
2023/09/15 01:40:37;;;;;;;;;;;;;;;10.68;80.05;102169.89;105802;1267;125586;-82
2023/09/15 01:43:04;;;;;;;;;;;;;;;10.67;80.13;102169.46;105851;1268;60122;-82
2023/09/15 01:45:31;;;;;;;;;;;;;;;10.66;80.18;102169.07;105798;1270;60360;-82
2023/09/15 01:47:57;;;;;;;;;;;;;;;10.65;80.09;102169.21;105798;1268;125126;-82
2023/09/15 01:50:24;;;;;;;;;;;;;;;10.63;80.09;102174.91;105859;1270;62094;-82
2023/09/15 01:52:50;;;;;;;;;;;;;;;10.62;80.22;102178.88;105816;1268;125431;-81
2023/09/15 01:55:16;;;;;;;;;;;;;;;10.61;80.24;102179.03;105933;1268;62113;-81
2023/09/15 01:57:43;;;;;;;;;;;;;;;10.61;80.28;102174.10;105878;1268;62560;-82
2023/09/15 02:00:10;;;;;;;;;;;;;;;10.60;80.34;102176.88;105677;1268;125340;-82
2023/09/15 02:02:37;;;;;;;;;;;;;;;10.60;80.36;102173.86;105810;1268;66667;-81
2023/09/15 02:05:04;;;;;;;;;;;;;;;10.61;80.32;102175.34;105684;1270;125851;-81
2023/09/15 02:07:30;;;;;;;;;;;;;;;10.60;80.35;102173.84;105752;1270;62075;-81
2023/09/15 02:09:56;;;;;;;;;;;;;;;10.60;80.29;102177.36;105909;1270;62062;-81
2023/09/15 02:12:23;;;;;;;;;;;;;;;10.59;80.22;102178.75;105774;1272;125878;-81
2023/09/15 02:14:49;;;;;;;;;;;;;;;10.58;80.28;102177.27;105915;1270;62402;-82
2023/09/15 02:17:16;;;;;;;;;;;;;;;10.57;80.35;102176.73;105614;1268;127213;-81
2023/09/15 02:19:43;;;;;;;;;;;;;;;10.57;80.35;102176.55;105690;1274;62034;-82
2023/09/15 02:22:09;;;;;;;;;;;;;;;10.55;80.24;102176.27;105864;1268;62420;-82
2023/09/15 02:24:36;;;;;;;;;;;;;;;10.53;80.22;102179.52;105633;1270;125325;-88
2023/09/15 02:27:02;;;;;;;;;;;;;;;10.51;80.28;102185.73;105797;1267;61950;-88
2023/09/15 02:29:30;;;;;;;;;;;;;;;10.50;80.28;102189.56;105924;1268;125159;-87
2023/09/15 02:31:56;;;;;;;;;;;;;;;10.48;80.28;102188.23;105952;1268;61996;-88
2023/09/15 02:34:22;;;;;;;;;;;;;;;10.48;80.31;102191.71;105807;1268;126598;-88
2023/09/15 02:36:50;;;;;;;;;;;;;;;10.46;80.20;102195.31;105746;1268;75557;-87
2023/09/15 02:39:17;;;;;;;;;;;;;;;10.43;80.47;102198.18;105922;1267;62078;-87
2023/09/15 02:41:43;;;;;;;;;;;;;;;10.43;80.38;102199.21;105858;1270;125559;-86
2023/09/15 02:44:10;;;;;;;;;;;;;;;10.43;80.26;102196.73;105930;1268;62137;-87
2023/09/15 02:46:37;;;;;;;;;;;;;;;10.42;80.34;102196.88;105873;1269;125883;-87
2023/09/15 02:49:04;;;;;;;;;;;;;;;10.41;80.30;102200.34;105949;1267;75509;-87
2023/09/15 02:51:31;;;;;;;;;;;;;;;10.39;80.29;102199.36;105950;1268;60735;-87
2023/09/15 02:53:57;;;;;;;;;;;;;;;10.37;80.25;102200.32;105749;1268;125699;-88
2023/09/15 02:56:24;;;;;;;;;;;;;;;10.35;80.27;102200.59;105845;1272;60207;-87
2023/09/15 02:58:51;;;;;;;;;;;;;;;10.36;80.42;102203.40;105892;1270;125500;-83
2023/09/15 03:01:18;;;;;;;;;;;;;;;10.36;80.45;102202.02;105956;1268;75567;-82
2023/09/15 03:03:48;;;;;;;;;;;;;;;10.35;80.40;102198.45;106029;1268;66055;-83
2023/09/15 03:06:14;;;;;;;;;;;;;;;10.33;80.45;102202.94;106264;1267;125330;-87
2023/09/15 03:08:41;;;;;;;;;;;;;;;10.34;80.54;102206.66;105706;1270;62179;-88
2023/09/15 03:11:19;;;;;;;;;;;;;;;10.34;80.51;102206.83;105789;1268;127248;-83
2023/09/15 03:13:46;;;;;;;;;;;;;;;10.33;80.54;102206.42;105708;1268;74238;-83
2023/09/15 03:16:13;;;;;;;;;;;;;;;10.33;80.62;102210.98;105817;1268;64010;-84
2023/09/15 03:18:39;;;;;;;;;;;;;;;10.33;80.58;102210.63;105688;1268;125259;-83
2023/09/15 03:21:06;;;;;;;;;;;;;;;10.34;80.58;102210.34;105653;1273;62056;-83
2023/09/15 03:23:32;;;;;;;;;;;;;;;10.33;80.58;102212.24;105726;1272;125474;-83
2023/09/15 03:26:00;;;;;;;;;;;;;;;10.34;80.69;102215.42;105873;1267;74270;-83
2023/09/15 03:28:26;;;;;;;;;;;;;;;10.37;80.76;102215.60;105911;1272;125484;-86
2023/09/15 03:30:53;;;;;;;;;;;;;;;10.42;80.70;102217.59;105848;1268;71992;-88
2023/09/15 03:33:19;;;;;;;;;;;;;;;10.43;80.63;102215.02;105877;1268;62118;-83
2023/09/15 03:35:45;;;;;;;;;;;;;;;10.45;80.63;102213.15;105619;1270;133361;-83
2023/09/15 03:38:12;;;;;;;;;;;;;;;10.47;80.63;102218.17;105861;1268;62104;-83
2023/09/15 03:40:38;;;;;;;;;;;;;;;10.50;80.72;102221.85;105967;1268;125661;-84
2023/09/15 03:43:06;;;;;;;;;;;;;;;10.54;80.68;102221.86;105863;1268;62255;-88
2023/09/15 03:45:33;;;;;;;;;;;;;;;10.55;80.47;102223.81;105751;1268;62145;-89
2023/09/15 03:48:00;;;;;;;;;;;;;;;10.54;80.44;102227.29;105685;1270;125499;-89
2023/09/15 03:50:26;;;;;;;;;;;;;;;10.54;80.44;102228.88;106017;1267;62185;-83
2023/09/15 03:52:53;;;;;;;;;;;;;;;10.54;80.46;102226.92;105570;1268;125661;-88
2023/09/15 03:55:19;;;;;;;;;;;;;;;10.51;80.38;102228.41;105874;1270;72589;-90
2023/09/15 03:57:46;;;;;;;;;;;;;;;10.50;80.37;102229.75;105860;1270;62209;-83
2023/09/15 04:00:18;;;;;;;;;;;;;;;10.47;80.32;102232.27;105654;1271;125474;-82
2023/09/15 04:02:45;;;;;;;;;;;;;;;10.46;80.27;102238.34;105908;1267;74221;-82
2023/09/15 04:05:12;;;;;;;;;;;;;;;10.45;80.32;102236.14;105781;1269;125187;-83
2023/09/15 04:07:38;;;;;;;;;;;;;;;10.43;80.31;102236.58;105905;1270;62085;-83
2023/09/15 04:10:05;;;;;;;;;;;;;;;10.41;80.38;102239.50;105848;1269;61973;-83
2023/09/15 04:12:32;;;;;;;;;;;;;;;10.41;80.31;102242.11;105653;1268;126445;-83
2023/09/15 04:14:59;;;;;;;;;;;;;;;10.41;80.33;102243.84;105646;1268;74298;-82
2023/09/15 04:17:26;;;;;;;;;;;;;;;10.38;80.27;102240.58;105835;1268;125721;-82
2023/09/15 04:19:52;;;;;;;;;;;;;;;10.38;80.47;102247.95;105900;1268;70970;-82
2023/09/15 04:22:19;;;;;;;;;;;;;;;10.41;80.55;102250.88;105983;1268;60550;-81
2023/09/15 04:24:45;;;;;;;;;;;;;;;10.44;80.47;102256.28;105873;1272;62005;-81
2023/09/15 04:27:12;;;;;;;;;;;;;;;10.45;80.44;102251.77;105956;1271;75477;-82
2023/09/15 04:29:50;;;;;;;;;;;;;;;10.46;80.48;102254.67;105629;1268;125395;-82
2023/09/15 04:32:17;;;;;;;;;;;;;;;10.49;80.47;102260.60;105603;1270;72529;-88
2023/09/15 04:34:43;;;;;;;;;;;;;;;10.62;80.86;102260.86;105875;1268;125972;-85
2023/09/15 04:37:10;;;;;;;;;;;;;;;11.24;82.15;102259.08;106095;1270;60717;-82
2023/09/15 04:39:36;;;;;;;;;;;;;;;12.10;82.10;102258.70;106026;1267;61999;-83
2023/09/15 04:42:03;;;;;;;;;;;;;;;12.85;81.35;102254.94;105816;1268;125667;-82
2023/09/15 04:44:30;;;;;;;;;;;;;;;13.17;79.54;102258.13;105816;1273;62129;-82
2023/09/15 04:46:56;;;;;;;;;;;;;;;12.90;77.77;102263.60;105848;1267;125437;-82
2023/09/15 04:49:23;;;;;;;;;;;;;;;12.55;77.33;102261.48;105965;1270;61960;-81
2023/09/15 04:51:49;;;;;;;;;;;;;;;12.29;77.34;102267.09;105890;1268;74258;-81
2023/09/15 04:54:16;;;;;;;;;;;;;;;12.06;77.37;102265.75;105808;1272;125273;-80
2023/09/15 04:56:42;;;;;;;;;;;;;;;11.90;77.50;102270.15;105869;1270;62592;-80
2023/09/15 04:59:15;;;;;;;;;;;;;;;11.80;77.54;102272.52;105648;1270;125534;-80
2023/09/15 05:01:43;;;;;;;;;;;;;;;11.84;77.98;102276.53;105942;1267;62633;-79
2023/09/15 05:04:10;;;;;;;;;;;;;;;11.92;77.95;102279.39;105822;1272;75492;-79
2023/09/15 05:06:37;;;;;;;;;;;;;;;11.97;77.85;102280.30;105742;1268;126571;-79
2023/09/15 05:09:10;;;;;;;;;;;;;;;11.99;77.80;102279.71;105695;1272;72746;-79
2023/09/15 05:11:37;;;;;;;;;;;;;;;12.00;77.77;102280.30;105798;1268;126003;-82
2023/09/15 05:14:03;;;;;;;;;;;;;;;11.99;77.63;102288.18;105832;1268;60502;-78
2023/09/15 05:16:30;;;;;;;;;;;;;;;11.98;77.49;102288.95;104945;1268;125592;-78
2023/09/15 05:18:56;;;;;;;;;;;;;;;11.92;77.41;102291.70;105091;1270;65025;-77
2023/09/15 05:21:23;;;;;;;;;;;;;;;11.90;77.61;102295.15;105259;1268;62031;-77
2023/09/15 05:23:49;;;;;;;;;;;;;;;11.94;77.78;102298.48;105128;1268;124698;-77
2023/09/15 05:26:16;;;;;;;;;;;;;;;12.01;77.76;102299.31;105294;1267;62196;-77
2023/09/15 05:28:42;;;;;;;;;;;;;;;12.08;77.75;102296.26;105352;1268;124726;-77
2023/09/15 05:31:11;;;;;;;;;;;;;;;12.15;77.89;102294.30;105377;1268;62176;-77
2023/09/15 05:33:38;;;;;;;;;;;;;;;12.26;77.92;102296.52;105621;1270;73459;-77
2023/09/15 05:36:04;;;;;;;;;;;;;;;12.35;77.86;102298.67;105401;1268;125115;-78
2023/09/15 05:38:31;;;;;;;;;;;;;;;12.40;77.80;102299.41;105839;1268;62196;-84
2023/09/15 05:40:58;;;;;;;;;;;;;;;12.46;77.82;102298.27;106154;1268;125329;-81
2023/09/15 05:43:24;;;;;;;;;;;;;;;12.50;77.52;102298.40;106323;1272;66359;-84
2023/09/15 05:45:51;;;;;;;;;;;;;;;12.52;77.56;102299.91;106030;1270;71212;-84
2023/09/15 05:48:23;;;;;;;;;;;;;;;12.55;77.48;102306.04;106076;1267;125125;-79
2023/09/15 05:50:50;;;;;;;;;;;;;;;12.61;77.67;102299.94;106101;1267;60202;-78
2023/09/15 05:53:16;;;;;;;;;;;;;;;12.69;77.69;102304.31;105983;1267;125447;-78
2023/09/15 05:55:43;;;;;;;;;;;;;;;12.77;77.74;102309.59;106117;1268;62111;-79
2023/09/15 05:58:09;;;;;;;;;;;;;;;12.87;77.68;102310.50;105933;1267;61885;-78
2023/09/15 06:00:36;;;;;;;;;;;;;;;12.97;77.70;102313.58;105856;1271;125201;-78
2023/09/15 06:03:02;;;;;;;;;;;;;;;13.09;77.77;102318.41;105919;1268;62108;-79
2023/09/15 06:05:29;;;;;;;;;;;;;;;13.19;77.69;102321.30;105882;1270;125878;-78
2023/09/15 06:07:55;;;;;;;;;;;;;;;13.26;77.41;102322.27;106301;1268;62110;-78
2023/09/15 06:10:22;;;;;;;;;;;;;;;13.31;77.39;102327.96;106138;1268;125489;-78
2023/09/15 06:12:49;;;;;;;;;;;;;;;13.40;77.53;102329.37;108149;1267;60455;-78
2023/09/15 06:15:15;;;;;;;;;;;;;;;13.51;77.56;102324.66;108245;1267;59829;-78
2023/09/15 06:17:42;;;;;;;;;;;;;;;13.60;77.57;102325.92;107827;1268;126360;-78
2023/09/15 06:20:08;;;;;;;;;;;;;;;13.70;77.61;102324.17;105864;1272;65007;-78
2023/09/15 06:22:35;;;;;;;;;;;;;;;13.81;77.66;102324.38;105779;1268;125936;-78
2023/09/15 06:25:02;;;;;;;;;;;;;;;13.91;77.61;102326.52;105790;1271;60510;-78
2023/09/15 06:27:32;;;;;;;;;;;;;;;14.01;77.39;102328.11;105821;1268;60138;-79
2023/09/15 06:29:59;;;;;;;;;;;;;;;14.08;77.28;102326.25;105751;1271;125717;-79
2023/09/15 06:32:25;;;;;;;;;;;;;;;14.16;77.29;102327.59;105821;1268;64741;-78
2023/09/15 06:34:52;;;;;;;;;;;;;;;14.28;77.33;102327.84;105820;1268;127785;-78
2023/09/15 06:37:19;;;;;;;;;;;;;;;14.37;77.14;102330.64;105859;1271;62039;-78
2023/09/15 06:39:45;;;;;;;;;;;;;;;14.47;77.17;102330.95;105967;1267;60117;-78
2023/09/15 06:42:12;;;;;;;;;;;;;;;14.57;77.09;102330.44;105744;1267;125254;-78
2023/09/15 06:44:40;;;;;;;;;;;;;;;14.67;77.13;102335.55;105717;1267;60099;-79
2023/09/15 06:47:07;;;;;;;;;;;;;;;14.72;76.89;102334.67;105609;1275;125676;-79
2023/09/15 06:49:34;;;;;;;;;;;;;;;14.78;76.86;102333.10;105944;1272;62011;-79
2023/09/15 06:52:00;;;;;;;;;;;;;;;14.83;76.82;102334.67;105734;1270;62092;-79
2023/09/15 06:54:26;;;;;;;;;;;;;;;14.90;76.89;102332.61;105716;1270;125439;-79
2023/09/15 06:56:53;;;;;;;;;;;;;;;15.00;77.00;102330.10;105806;1267;62127;-78
2023/09/15 06:59:19;;;;;;;;;;;;;;;15.09;77.03;102330.23;105612;1268;125595;-79
2023/09/15 07:01:46;;;;;;;;;;;;;;;15.19;76.97;102328.23;105872;1268;62196;-78
2023/09/15 07:04:13;;;;;;;;;;;;;;;15.30;77.06;102330.33;105797;1268;62306;-81
2023/09/15 07:06:40;;;;;;;;;;;;;;;15.41;76.98;102332.95;105905;1272;125189;-78
2023/09/15 07:09:07;;;;;;;;;;;;;;;15.53;76.92;102330.84;105966;1267;66186;-79
2023/09/15 07:11:33;;;;;;;;;;;;;;;15.64;76.89;102328.86;105752;1267;125608;-78
2023/09/15 07:14:00;;;;;;;;;;;;;;;15.73;76.71;102330.93;105884;1270;62080;-80
2023/09/15 07:16:29;;;;;;;;;;;;;;;15.82;76.55;102329.26;105744;1268;125186;-80
2023/09/15 07:18:58;;;;;;;;;;;;;;;15.92;76.57;102327.93;105722;1269;75602;-80
2023/09/15 07:21:25;;;;;;;;;;;;;;;16.02;76.50;102329.63;105786;1267;66312;-80
2023/09/15 07:23:51;;;;;;;;;;;;;;;16.10;76.19;102333.94;105699;1268;125204;-80
2023/09/15 07:26:18;;;;;;;;;;;;;;;16.18;75.92;102331.67;105893;1270;60494;-80
2023/09/15 07:28:44;;;;;;;;;;;;;;;16.25;75.54;102329.92;105857;1272;124664;-80
2023/09/15 07:31:11;;;;;;;;;;;;;;;16.31;75.10;102328.29;105679;1269;75529;-80
2023/09/15 07:33:38;;;;;;;;;;;;;;;16.37;74.73;102326.52;105717;1268;66230;-78
2023/09/15 07:36:04;;;;;;;;;;;;;;;16.45;74.47;102327.60;105776;1273;125673;-79
2023/09/15 07:38:31;;;;;;;;;;;;;;;16.52;74.17;102328.30;105911;1267;60852;-79
2023/09/15 07:40:58;;;;;;;;;;;;;;;16.58;73.71;102327.40;105854;1267;124868;-80
2023/09/15 07:43:24;;;;;;;;;;;;;;;16.64;73.40;102330.73;106112;1268;74679;-81
2023/09/15 07:45:51;;;;;;;;;;;;;;;16.69;73.19;102330.52;105956;1268;181995;-80
2023/09/15 07:48:17;;;;;;;;;;;;;;;16.77;73.17;102331.93;105783;1273;124757;-80
2023/09/15 07:50:44;;;;;;;;;;;;;;;16.84;72.80;102329.13;105777;1268;62090;-79
2023/09/15 07:53:11;;;;;;;;;;;;;;;16.88;72.31;102328.89;105588;1267;124853;-81
2023/09/15 07:55:37;;;;;;;;;;;;;;;16.94;72.04;102327.42;105946;1267;73639;-81
2023/09/15 07:58:04;;;;;;;;;;;;;;;16.97;71.86;102330.33;105939;1267;66103;-81
2023/09/15 08:00:30;;;;;;;;;;;;;;;17.01;71.91;102330.26;105543;1268;125700;-80
2023/09/15 08:02:57;;;;;;;;;;;;;;;17.08;71.82;102329.37;105835;1272;61979;-82
2023/09/15 08:05:25;;;;;;;;;;;;;;;17.12;71.44;102328.93;105760;1271;125955;-79
2023/09/15 08:07:51;;;;;;;;;;;;;;;17.19;71.39;102332.28;105665;1268;75451;-80
2023/09/15 08:10:19;;;;;;;;;;;;;;;17.25;71.08;102330.11;105922;1268;66333;-79
2023/09/15 08:12:48;;;;;;;;;;;;;;;17.31;70.85;102333.27;105801;1268;125391;-80
2023/09/15 08:15:16;;;;;;;;;;;;;;;17.38;70.57;102331.83;105932;1269;62095;-80
2023/09/15 08:17:43;;;;;;;;;;;;;;;17.43;69.97;102330.33;105820;1272;125304;-80
2023/09/15 08:20:11;;;;;;;;;;;;;;;17.47;69.60;102325.28;105713;1268;76513;-81
2023/09/15 08:22:41;;;;;;;;;;;;;;;17.51;69.41;102327.11;105705;1268;125192;-81
2023/09/15 08:25:08;;;;;;;;;;;;;;;17.56;69.36;102326.35;105848;1272;71048;-80
2023/09/15 08:27:35;;;;;;;;;;;;;;;17.64;69.43;102324.20;105915;1273;63048;-80
2023/09/15 08:30:01;;;;;;;;;;;;;;;17.73;69.48;102326.17;105930;1268;124572;-80
2023/09/15 08:32:28;;;;;;;;;;;;;;;17.83;69.46;102327.45;105909;1272;75628;-81
2023/09/15 08:34:54;;;;;;;;;;;;;;;17.90;68.85;102330.11;105682;1268;124665;-80
2023/09/15 08:37:21;;;;;;;;;;;;;;;17.93;68.31;102329.98;105903;1268;72658;-80
2023/09/15 08:39:47;;;;;;;;;;;;;;;17.96;68.29;102328.62;105780;1268;62056;-80
2023/09/15 08:42:24;;;;;;;;;;;;;;;18.02;67.72;102331.57;105776;1268;125262;-80
2023/09/15 08:44:50;;;;;;;;;;;;;;;18.01;67.12;102332.44;105886;1268;74273;-80
2023/09/15 08:47:17;;;;;;;;;;;;;;;18.05;67.49;102329.70;105701;1268;124548;-81
2023/09/15 08:49:44;;;;;;;;;;;;;;;18.14;67.58;102329.50;105972;1268;71414;-79
2023/09/15 08:52:11;;;;;;;;;;;;;;;18.20;67.21;102330.69;105718;1269;62087;-79
2023/09/15 08:54:37;;;;;;;;;;;;;;;18.19;66.47;102330.84;105832;1270;124939;-80
2023/09/15 08:57:04;;;;;;;;;;;;;;;18.13;65.95;102331.08;105900;1268;75421;-80
2023/09/15 08:59:30;;;;;;;;;;;;;;;18.09;65.68;102335.63;105706;1270;124432;-80
2023/09/15 09:01:57;;;;;;;;;;;;;;;18.09;65.42;102326.55;105966;1267;70160;-80
2023/09/15 09:04:24;;;;;;;;;;;;;;;18.09;65.43;102323.55;105720;1268;124974;-80
2023/09/15 09:06:50;;;;;;;;;;;;;;;18.14;65.57;102323.47;105988;1270;62174;-80
2023/09/15 09:09:17;;;;;;;;;;;;;;;18.20;65.49;102326.23;105865;1268;76036;-80
2023/09/15 09:11:43;;;;;;;;;;;;;;;18.25;65.20;102328.64;105882;1268;125125;-79
2023/09/15 09:14:13;;;;;;;;;;;;;;;18.32;64.98;102330.90;105721;1270;61157;-79
2023/09/15 09:16:42;;;;;;;;;;;;;;;18.37;64.64;102335.45;105724;1268;125771;-80
2023/09/15 09:19:10;;;;;;;;;;;;;;;18.39;64.39;102341.17;105849;1268;62091;-80
2023/09/15 09:21:36;;;;;;;;;;;;;;;18.42;64.00;102336.41;105595;1274;74522;-80
2023/09/15 09:24:03;;;;;;;;;;;;;;;18.41;63.55;102338.33;105625;1268;126025;-79
2023/09/15 09:26:30;;;;;;;;;;;;;;;18.43;63.49;102342.13;105623;1273;71450;-79
2023/09/15 09:28:59;;;;;;;;;;;;;;;18.48;63.50;102340.96;105762;1268;125508;-81
2023/09/15 09:31:26;;;;;;;;;;;;;;;18.53;63.23;102342.30;105691;1268;62200;-79
2023/09/15 09:33:53;;;;;;;;;;;;;;;18.56;62.88;102345.55;105040;1268;75307;-79
2023/09/15 09:36:20;;;;;;;;;;;;;;;18.55;62.57;102340.55;105064;1268;124571;-80
2023/09/15 09:38:47;;;;;;;;;;;;;;;18.57;62.69;102342.02;105219;1272;72813;-80
2023/09/15 09:41:14;;;;;;;;;;;;;;;18.61;62.68;102341.91;105206;1273;125071;-80
2023/09/15 09:43:41;;;;;;;;;;;;;;;18.63;62.18;102334.98;105094;1268;62056;-80
2023/09/15 09:46:09;;;;;;;;;;;;;;;18.61;61.97;102336.21;105235;1268;74333;-80
2023/09/15 09:48:36;;;;;;;;;;;;;;;18.60;61.93;102338.48;105614;1273;125248;-80
2023/09/15 09:51:02;;;;;;;;;;;;;;;18.58;61.56;102335.64;105853;1271;72714;-82
2023/09/15 09:53:29;;;;;;;;;;;;;;;18.56;61.41;102332.58;105895;1268;125361;-81
2023/09/15 09:55:56;;;;;;;;;;;;;;;18.55;61.13;102332.38;105925;1268;62017;-80
2023/09/15 09:58:23;;;;;;;;;;;;;;;18.47;60.92;102330.63;105930;1267;124666;-80
2023/09/15 10:00:50;;;;;;;;;;;;;;;18.40;61.00;102326.80;105873;1270;65301;-80
2023/09/15 10:03:17;;;;;;;;;;;;;;;18.37;60.79;102325.84;105766;1267;72813;-79
2023/09/15 10:05:44;;;;;;;;;;;;;;;18.35;60.75;102326.86;105639;1268;124592;-80
2023/09/15 10:08:11;;;;;;;;;;;;;;;18.33;60.38;102325.58;105806;1270;62273;-80
2023/09/15 10:10:41;;;;;;;;;;;;;;;18.31;60.47;102326.27;105925;1273;124649;-79
2023/09/15 10:13:07;;;;;;;;;;;;;;;18.35;60.50;102324.73;105766;1273;67416;-81
2023/09/15 10:15:35;;;;;;;;;;;;;;;18.38;60.34;102324.43;105874;1268;72822;-81
2023/09/15 10:18:02;;;;;;;;;;;;;;;18.44;60.63;102328.80;105532;1273;124749;-80
2023/09/15 10:20:28;;;;;;;;;;;;;;;18.54;60.72;102333.59;105825;1267;60435;-80
2023/09/15 10:22:55;;;;;;;;;;;;;;;18.60;60.37;102334.95;105808;1268;124922;-80
2023/09/15 10:25:22;;;;;;;;;;;;;;;18.60;59.76;102336.89;105895;1273;62199;-80
2023/09/15 10:27:50;;;;;;;;;;;;;;;18.59;59.83;102334.92;105814;1268;71244;-79
2023/09/15 10:30:16;;;;;;;;;;;;;;;18.58;59.70;102336.67;105867;1268;124913;-81
2023/09/15 10:32:43;;;;;;;;;;;;;;;18.56;59.50;102338.79;105934;1273;62172;-80
2023/09/15 10:35:10;;;;;;;;;;;;;;;18.61;59.71;102333.54;105912;1272;124573;-82
2023/09/15 10:37:40;;;;;;;;;;;;;;;18.68;59.92;102335.27;105724;1268;64601;-82
2023/09/15 10:40:07;;;;;;;;;;;;;;;18.76;59.82;102329.17;105679;1273;72755;-80
2023/09/15 10:42:33;;;;;;;;;;;;;;;18.82;59.74;102325.38;105708;1276;124800;-81
2023/09/15 10:45:08;;;;;;;;;;;;;;;18.84;59.32;102325.25;105690;1268;61663;-81
2023/09/15 10:47:36;;;;;;;;;;;;;;;18.87;58.99;102325.63;105992;1268;125099;-81
2023/09/15 10:50:05;;;;;;;;;;;;;;;18.89;59.04;102323.36;105805;1271;62160;-81
2023/09/15 10:52:33;;;;;;;;;;;;;;;18.93;58.86;102325.38;105711;1267;125152;-79
2023/09/15 10:55:02;;;;;;;;;;;;;;;18.95;58.67;102322.58;105640;1272;62015;-80
2023/09/15 10:57:29;;;;;;;;;;;;;;;18.94;58.00;102319.88;105977;1273;60778;-79
2023/09/15 10:59:55;;;;;;;;;;;;;;;18.92;57.60;102319.66;105839;1268;124483;-79
2023/09/15 11:02:22;;;;;;;;;;;;;;;18.90;57.65;102321.95;105821;1273;66514;-80
2023/09/15 11:04:48;;;;;;;;;;;;;;;18.91;57.74;102319.85;105628;1271;123817;-80
2023/09/15 11:07:16;;;;;;;;;;;;;;;18.94;57.62;102320.60;105800;1275;62085;-80
2023/09/15 11:09:42;;;;;;;;;;;;;;;18.93;57.33;102317.55;105648;1269;62216;-79
2023/09/15 11:12:12;;;;;;;;;;;;;;;18.86;57.10;102319.77;105820;1273;124811;-79
2023/09/15 11:14:38;;;;;;;;;;;;;;;18.81;57.06;102317.19;105989;1272;66289;-80
2023/09/15 11:17:05;;;;;;;;;;;;;;;18.79;56.98;102323.35;105592;1276;125384;-79
2023/09/15 11:19:34;;;;;;;;;;;;;;;18.79;56.61;102321.23;106001;1268;62123;-82
2023/09/15 11:22:04;;;;;;;;;;;;;;;18.77;56.52;102318.52;106029;1272;61972;-80
2023/09/15 11:24:32;;;;;;;;;;;;;;;18.83;56.59;102315.09;105940;1268;124545;-80
2023/09/15 11:27:00;;;;;;;;;;;;;;;18.88;56.48;102310.72;105894;1270;65870;-80
2023/09/15 11:29:27;;;;;;;;;;;;;;;18.95;56.51;102308.33;105765;1270;124846;-80
2023/09/15 11:31:54;;;;;;;;;;;;;;;19.00;56.14;102306.45;105963;1272;60482;-81
2023/09/15 11:34:20;;;;;;;;;;;;;;;19.06;56.08;102307.08;105730;1272;62070;-81
2023/09/15 11:36:47;;;;;;;;;;;;;;;19.12;56.14;102303.59;105677;1267;124811;-81
2023/09/15 11:39:15;;;;;;;;;;;;;;;19.17;56.23;102303.16;105740;1273;64734;-82
2023/09/15 11:41:53;;;;;;;;;;;;;;;19.24;55.98;102298.09;105686;1268;124471;-81
2023/09/15 11:44:24;;;;;;;;;;;;;;;19.30;56.21;102296.74;105928;1273;62081;-81
2023/09/15 11:46:50;;;;;;;;;;;;;;;19.36;56.12;102296.46;105832;1270;124839;-81
2023/09/15 11:49:20;;;;;;;;;;;;;;;19.43;56.31;102293.89;105685;1269;74907;-81
2023/09/15 11:51:46;;;;;;;;;;;;;;;19.48;55.88;102296.25;105907;1268;66299;-81
2023/09/15 11:54:13;;;;;;;;;;;;;;;19.45;55.37;102294.25;105996;1268;124593;-81
2023/09/15 11:56:39;;;;;;;;;;;;;;;19.41;55.13;102294.39;106154;1268;60091;-81
2023/09/15 11:59:06;;;;;;;;;;;;;;;19.40;54.95;102293.13;105642;1268;125061;-81
2023/09/15 12:01:33;;;;;;;;;;;;;;;19.36;54.75;102286.50;105683;1268;73907;-81
2023/09/15 12:03:59;;;;;;;;;;;;;;;19.34;54.74;102283.81;105819;1272;65965;-81
2023/09/15 12:06:26;;;;;;;;;;;;;;;19.35;54.60;102285.06;105609;1271;124532;-82
2023/09/15 12:08:53;;;;;;;;;;;;;;;19.33;54.38;102283.60;105837;1272;60283;-82
2023/09/15 12:11:19;;;;;;;;;;;;;;;19.32;54.44;102281.09;105649;1274;124586;-82
2023/09/15 12:13:52;;;;;;;;;;;;;;;19.32;54.42;102281.81;105886;1270;73948;-81
2023/09/15 12:16:19;;;;;;;;;;;;;;;19.30;54.41;102271.82;105876;1268;64782;-81
2023/09/15 12:18:46;;;;;;;;;;;;;;;19.32;54.56;102271.30;105570;1271;125932;-81
2023/09/15 12:21:13;;;;;;;;;;;;;;;19.34;54.57;102270.98;105961;1273;61939;-80
2023/09/15 12:23:40;;;;;;;;;;;;;;;19.35;54.50;102267.62;105841;1274;124745;-80